Fort Bridger, Wyoming
Current Conditions -  °F | °C
As of 1:35 AM on Sunday 21 Dec 2014 (Local Time) from KFBR Reporting Station
Scattered Clouds Scattered Clouds  
Wind Chill: 22°   Ceiling: Unl
Heat Index: 33°   Visibility: 10mi
Dew Point: 30°   Wind: 18mph
Humidity: 89%   Direction: 260°W
Pressure: 29.94"   Gusts: 28mph
Location:  41.32°N, 110.39°W
Report Text: KFBR 210835Z AUTO 26016G24KT 10SM SCT034 SCT043 01/M01 A2994 RMK AO2 T00061010
Loading
Personal Weather Stations






























Interactive Weather Map New forecast layout! Learn more

10-Day Weather Forecast

Advertisements
Track Severe Weather on mobile